Smoke Signal, Arizona
Current Conditions -  °F | °C
As of 6:53 PM on Saturday 22 Nov 2014 (Local Time) from KGUP Reporting Station
Clear Clear  
Wind Chill: 36°   Ceiling: Unl
Heat Index: 42°   Visibility: 10mi
Dew Point: 14°   Wind: 10mph
Humidity: 32%   Direction: 200°SSW
Pressure: 29.96"   Gusts: NA
Location:  36.1012°N, 109.584°W
Report Text: KGUP 230153Z AUTO 20009KT 10SM CLR 06/M10 A2996 RMK AO2 SLP175 T00561100
Loading
Personal Weather Stations






























Interactive Weather Map New forecast layout! Learn more

10-Day Weather Forecast

Advertisements
Track Severe Weather on mobile